createdAt,value
2018-09-07T00:05:38.000Z,23.01
2018-09-07T00:15:38.000Z,22.98
2018-09-07T00:25:38.000Z,22.95
2018-09-07T00:35:38.000Z,22.94
2018-09-07T00:45:39.000Z,22.93
2018-09-07T00:55:38.000Z,22.91
2018-09-07T01:05:38.000Z,22.87
2018-09-07T01:15:38.000Z,22.86
2018-09-07T01:25:38.000Z,22.83
2018-09-07T01:35:38.000Z,22.82
2018-09-07T01:45:38.000Z,22.8
2018-09-07T01:55:38.000Z,22.78
2018-09-07T02:05:38.000Z,22.79
2018-09-07T02:15:38.000Z,22.75
2018-09-07T02:25:38.000Z,22.74
2018-09-07T02:35:38.000Z,22.71
2018-09-07T02:45:38.000Z,22.7
2018-09-07T02:55:38.000Z,22.69
2018-09-07T03:05:38.000Z,22.67
2018-09-07T03:15:38.000Z,22.65
2018-09-07T03:25:38.000Z,22.61
2018-09-07T03:35:38.000Z,22.59
2018-09-07T03:45:38.000Z,22.58
2018-09-07T03:55:38.000Z,22.55
2018-09-07T04:05:38.000Z,22.56
2018-09-07T04:15:38.000Z,22.54
2018-09-07T04:25:38.000Z,22.53
2018-09-07T04:35:38.000Z,22.49
2018-09-07T04:45:38.000Z,22.48
2018-09-07T04:55:38.000Z,22.45
2018-09-07T05:05:38.000Z,22.45
2018-09-07T05:15:38.000Z,22.43
2018-09-07T05:25:38.000Z,22.39
2018-09-07T05:35:38.000Z,22.39
2018-09-07T05:45:38.000Z,22.4
2018-09-07T05:55:38.000Z,22.39
2018-09-07T06:05:38.000Z,22.38
2018-09-07T06:15:38.000Z,22.37
2018-09-07T06:25:38.000Z,22.39
2018-09-07T06:35:38.000Z,22.42
2018-09-07T06:45:38.000Z,22.38
2018-09-07T06:55:38.000Z,22.43
2018-09-07T07:05:38.000Z,22.45
2018-09-07T07:15:38.000Z,22.44
2018-09-07T07:25:39.000Z,22.42
2018-09-07T07:35:39.000Z,22.4
2018-09-07T07:45:39.000Z,22.46
2018-09-07T07:55:39.000Z,22.55
2018-09-07T08:05:39.000Z,22.58
2018-09-07T08:15:39.000Z,22.58
2018-09-07T08:25:39.000Z,22.56
2018-09-07T08:35:39.000Z,22.58
2018-09-07T08:45:39.000Z,22.57
2018-09-07T08:55:39.000Z,22.55
2018-09-07T09:05:39.000Z,22.57
2018-09-07T09:15:39.000Z,22.53
2018-09-07T09:25:39.000Z,22.52
2018-09-07T09:35:39.000Z,22.51
2018-09-07T09:45:39.000Z,22.49
2018-09-07T10:05:39.000Z,22.53
2018-09-07T10:15:39.000Z,22.5
2018-09-07T10:25:39.000Z,22.57
2018-09-07T10:35:39.000Z,22.77
2018-09-07T10:45:39.000Z,22.9
2018-09-07T10:55:39.000Z,23.06
2018-09-07T11:05:39.000Z,23.12
2018-09-07T11:15:39.000Z,23.14
2018-09-07T11:25:39.000Z,23.21
2018-09-07T11:35:39.000Z,23.05
2018-09-07T11:45:39.000Z,23.19
2018-09-07T11:55:43.000Z,23.22
2018-09-07T12:05:39.000Z,23.22
2018-09-07T12:15:39.000Z,23.25
2018-09-07T12:25:39.000Z,23.33
2018-09-07T12:35:39.000Z,23.39
2018-09-07T12:45:39.000Z,23.33
2018-09-07T12:55:39.000Z,23.26
2018-09-07T13:05:39.000Z,23.39
2018-09-07T13:15:39.000Z,23.28
2018-09-07T13:25:39.000Z,23.32
2018-09-07T13:35:39.000Z,23.34
2018-09-07T13:45:39.000Z,23.3
2018-09-07T13:55:39.000Z,23.24
2018-09-07T14:05:39.000Z,23.24
2018-09-07T14:15:39.000Z,23.31
2018-09-07T14:25:39.000Z,23.27
2018-09-07T14:35:39.000Z,23.26
2018-09-07T14:45:39.000Z,23.27
2018-09-07T14:55:39.000Z,23.27
2018-09-07T15:05:39.000Z,23.26
2018-09-07T15:15:39.000Z,23.21
2018-09-07T15:25:39.000Z,23.16
2018-09-07T15:35:40.000Z,23.17
2018-09-07T15:45:40.000Z,23.14
2018-09-07T15:55:40.000Z,23.1
2018-09-07T16:05:40.000Z,23.09
2018-09-07T16:15:40.000Z,23.04
2018-09-07T16:25:40.000Z,23
2018-09-07T16:35:40.000Z,23.01
2018-09-07T16:45:40.000Z,22.92
2018-09-07T16:55:40.000Z,22.92
2018-09-07T17:05:40.000Z,22.9
2018-09-07T17:15:40.000Z,22.85
2018-09-07T17:25:40.000Z,22.82
2018-09-07T17:35:40.000Z,22.78
2018-09-07T17:45:40.000Z,22.72
2018-09-07T17:55:40.000Z,22.68
2018-09-07T18:05:40.000Z,22.65
2018-09-07T18:15:40.000Z,22.59
2018-09-07T18:25:40.000Z,22.55
2018-09-07T18:35:40.000Z,22.53
2018-09-07T18:45:40.000Z,22.5
2018-09-07T18:55:40.000Z,22.45
2018-09-07T19:05:40.000Z,22.4
2018-09-07T19:15:41.000Z,22.37
2018-09-07T19:25:40.000Z,22.32
2018-09-07T19:35:40.000Z,22.26
2018-09-07T19:45:40.000Z,22.21
2018-09-07T20:05:40.000Z,22.13
2018-09-07T20:15:40.000Z,22.08
2018-09-07T20:25:40.000Z,22.02
2018-09-07T20:55:40.000Z,21.95
2018-09-07T21:05:40.000Z,21.91
2018-09-07T21:15:40.000Z,21.86
2018-09-07T21:25:40.000Z,21.83
2018-09-07T21:35:40.000Z,21.8
2018-09-07T21:45:40.000Z,21.77
2018-09-07T21:55:40.000Z,21.73
2018-09-07T22:05:40.000Z,21.69
2018-09-07T22:15:40.000Z,21.66
2018-09-07T22:25:40.000Z,21.62
2018-09-07T22:35:40.000Z,21.59
2018-09-07T22:45:40.000Z,21.54
2018-09-07T22:55:40.000Z,21.51
2018-09-07T23:05:40.000Z,21.48
2018-09-07T23:15:40.000Z,21.45
2018-09-07T23:25:40.000Z,21.41
2018-09-07T23:35:41.000Z,21.38
2018-09-07T23:45:40.000Z,21.35
2018-09-07T23:55:41.000Z,21.33
